Search for airport 
image banner adimage banner ad
image banner ad

DAOY - El Bayadh

Located in El Bayadh, Algeria

ICAO - DAOY, IATA - EBH

Data provided by Airmate  

General information

Coordinates: N33°43'15" E1°5'29"
Elevation is 4481 feet MSL.
 
View others Airports in El Bayadh Province

Operational data

Open for public use
Current time UTC:
Current local time:
Weather
METAR: DAOY 230700Z 12014KT 9999 SCT030 19/05 Q1023
View NOTAMs / SUP AIP / TFR affecting this airport [VIEW]
Communications frequencies: [VIEW]

Runways:

RWY identifierQFULength (ft)Width (ft)SurfaceLDA (ft)
0442°9843148
22222°9843148

Airport contact information

Address: El Bayadh Algeria

Satellite view of DAOY